SWA1025 MMUN-KMCO
Flight info
| Callsign | SWA1025 |
|---|---|
| Flight time | N/A |
| Altitude | 37000 |
| Route | CUN UM219 MYDIA M219 CIGAR |
| Aircraft | B737/M-SDE2E3FGHIRWXY/LB1 |
Departure
| Time | N/A |
|---|---|
| Airport | Cancún International Airport (MMUN) |
Arrival
| Time | 2026-04-21 20:14 |
|---|---|
| Airport | Orlando International Airport (KMCO) |
| Time | Latitude | Longitude | Altitude | Speed | Heading |
|---|---|---|---|---|---|
| 2026-04-21 20:11 | 28.28585 | -81.32532 | 2996 ft | 208 kts | 5° |
| 2026-04-21 20:11 | 28.30025 | -81.32546 | 2984 ft | 201 kts | 5° |
| 2026-04-21 20:11 | 28.31449 | -81.32555 | 2504 ft | 214 kts | 6° |
| 2026-04-21 20:11 | 28.33020 | -81.32558 | 1873 ft | 231 kts | 5° |
| 2026-04-21 20:12 | 28.34631 | -81.32576 | 1620 ft | 227 kts | 5° |
| 2026-04-21 20:12 | 28.36145 | -81.32604 | 1490 ft | 204 kts | 4° |
| 2026-04-21 20:12 | 28.37489 | -81.32628 | 1359 ft | 186 kts | 6° |
| 2026-04-21 20:12 | 28.38818 | -81.32665 | 666 ft | 196 kts | 3° |
| 2026-04-21 20:13 | 28.40160 | -81.32697 | 370 ft | 183 kts | 7° |
| 2026-04-21 20:13 | 28.41373 | -81.32679 | 151 ft | 168 kts | 5° |
| 2026-04-21 20:13 | 28.42477 | -81.32674 | 94 ft | 138 kts | 4° |
| 2026-04-21 20:13 | 28.43218 | -81.32679 | 93 ft | 73 kts | 1° |
| 2026-04-21 20:14 | 28.43577 | -81.32680 | 92 ft | 40 kts | 8° |
| 2026-04-21 20:14 | 28.43731 | -81.32573 | 90 ft | 20 kts | 58° |
| 2026-04-21 20:14 | 28.43796 | -81.32447 | 90 ft | 16 kts | 60° |
| 2026-04-21 20:14 | 28.43848 | -81.32348 | 90 ft | 12 kts | 59° |
| 2026-04-21 20:15 | 28.43888 | -81.32276 | 90 ft | 9 kts | 58° |
| 2026-04-21 20:15 | 28.43940 | -81.32178 | 90 ft | 17 kts | 60° |
| 2026-04-21 20:15 | 28.43988 | -81.32066 | 90 ft | 13 kts | 81° |
| 2026-04-21 20:15 | 28.43974 | -81.31975 | 90 ft | 10 kts | 113° |
| 2026-04-21 20:16 | 28.43944 | -81.31902 | 90 ft | 8 kts | 116° |
| 2026-04-21 20:16 | 28.43922 | -81.31848 | 90 ft | 7 kts | 105° |
| 2026-04-21 20:16 | 28.43921 | -81.31782 | 90 ft | 8 kts | 88° |
| 2026-04-21 20:16 | 28.43922 | -81.31715 | 90 ft | 6 kts | 101° |
| 2026-04-21 20:17 | 28.43886 | -81.31690 | 90 ft | 7 kts | 178° |
| 2026-04-21 20:17 | 28.43876 | -81.31690 | 90 ft | 8 kts | 178° |
| 2026-04-21 20:27 | 28.43849 | -81.31689 | 90 ft | 9 kts | 177° |
| 2026-04-21 20:27 | 28.43785 | -81.31654 | 90 ft | 11 kts | 144° |
| 2026-04-21 20:28 | 28.43712 | -81.31609 | 89 ft | 10 kts | 181° |
| 2026-04-21 20:28 | 28.43650 | -81.31626 | 89 ft | 7 kts | 194° |
| 2026-04-21 20:28 | 28.43607 | -81.31611 | 88 ft | 6 kts | 130° |
| 2026-04-21 20:28 | 28.43592 | -81.31574 | 87 ft | 3 kts | 116° |
| 2026-04-21 20:29 | 28.43588 | -81.31567 | 87 ft | 0 kts | 117° |
| 2026-04-21 20:29 | 28.43587 | -81.31565 | 87 ft | 1 kts | 117° |
| 2026-04-21 20:29 | 28.43586 | -81.31563 | 87 ft | 0 kts | 117° |